Siloam Springs, Arkansas
Current Conditions -  °F | °C
As of 10:55 PM on Sunday 21 Dec 2014 (Local Time) from KSLG Reporting Station
Overcast Overcast  
Wind Chill: 39°   Ceiling: 400
Heat Index: 43°   Visibility: 2.5mi
Dew Point: 37°   Wind: 6mph
Humidity: 81%   Direction: 170°S
Pressure: 29.82"   Gusts: NA
Location:  36.19°N, 94.54°W
Report Text: KSLG 220455Z AUTO 17005KT 2 1/2SM BKN004 OVC011 06/03 A2982 RMK AO1
Loading
Personal Weather Stations






























Interactive Weather Map New forecast layout! Learn more

10-Day Weather Forecast

Advertisements
Track Severe Weather on mobile